createdAt,value
2023-04-11T00:00:25.453Z,10.73
2023-04-11T00:02:55.650Z,11.02
2023-04-11T00:05:26.428Z,10.63
2023-04-11T00:07:54.671Z,9.90
2023-04-11T00:10:23.038Z,10.85
2023-04-11T00:12:52.683Z,13.77
2023-04-11T00:15:19.402Z,11.25
2023-04-11T00:17:46.135Z,10.45
2023-04-11T00:20:12.898Z,11.07
2023-04-11T00:22:39.715Z,11.00
2023-04-11T00:25:07.053Z,10.93
2023-04-11T00:27:33.789Z,10.82
2023-04-11T00:30:00.946Z,11.23
2023-04-11T00:32:27.947Z,10.95
2023-04-11T00:34:54.672Z,11.18
2023-04-11T00:37:21.397Z,10.65
2023-04-11T00:39:49.406Z,12.15
2023-04-11T00:42:17.012Z,10.35
2023-04-11T00:44:43.971Z,11.65
2023-04-11T00:47:12.108Z,11.57
2023-04-11T00:49:40.184Z,10.30
2023-04-11T00:52:08.440Z,11.10
2023-04-11T00:54:35.435Z,10.60
2023-04-11T00:57:05.012Z,10.93
2023-04-11T00:59:33.149Z,11.43
2023-04-11T01:02:01.608Z,11.65
2023-04-11T01:04:30.642Z,12.68
2023-04-11T01:07:03.445Z,12.38
2023-04-11T01:09:32.806Z,10.98
2023-04-11T01:12:01.648Z,11.30
2023-04-11T01:14:29.080Z,13.18
2023-04-11T01:16:58.026Z,10.10
2023-04-11T01:19:28.002Z,13.75
2023-04-11T01:22:07.641Z,10.40
2023-04-11T01:24:35.822Z,10.85
2023-04-11T01:27:04.026Z,11.25
2023-04-11T01:29:35.840Z,12.10
2023-04-11T01:32:05.542Z,12.27
2023-04-11T01:34:36.090Z,10.95
2023-04-11T01:37:03.027Z,10.38
2023-04-11T01:39:30.264Z,10.80
2023-04-11T01:41:57.854Z,11.82
2023-04-11T01:44:25.244Z,11.40
2023-04-11T01:46:52.098Z,10.50
2023-04-11T01:49:19.084Z,10.75
2023-04-11T01:51:45.783Z,11.15
2023-04-11T01:54:12.529Z,10.88
2023-04-11T01:56:39.261Z,10.70
2023-04-11T01:59:05.961Z,13.13
2023-04-11T02:01:32.682Z,14.07
2023-04-11T02:03:59.529Z,12.05
2023-04-11T02:06:26.293Z,12.02
2023-04-11T02:08:53.571Z,11.80
2023-04-11T02:11:20.354Z,11.55
2023-04-11T02:13:47.055Z,10.82
2023-04-11T02:16:14.028Z,11.07
2023-04-11T02:18:42.685Z,11.32
2023-04-11T02:21:10.821Z,13.27
2023-04-11T02:23:37.756Z,11.07
2023-04-11T02:26:05.899Z,11.40
2023-04-11T02:28:32.596Z,11.93
2023-04-11T02:31:03.039Z,13.98
2023-04-11T02:33:33.366Z,12.70
2023-04-11T02:36:03.581Z,12.60
2023-04-11T02:38:31.920Z,11.68
2023-04-11T02:41:02.392Z,12.57
2023-04-11T02:43:29.365Z,12.13
2023-04-11T02:46:02.295Z,11.40
2023-04-11T02:48:36.461Z,11.95
2023-04-11T02:51:04.680Z,12.27
2023-04-11T02:53:32.083Z,14.23
2023-04-11T02:56:00.307Z,12.10
2023-04-11T02:58:28.041Z,11.43
2023-04-11T03:00:57.909Z,11.30
2023-04-11T03:03:25.173Z,12.30
2023-04-11T03:05:53.195Z,11.68
2023-04-11T03:08:23.078Z,11.80
2023-04-11T03:10:49.838Z,11.38
2023-04-11T03:13:25.476Z,11.30
2023-04-11T03:15:55.102Z,12.25
2023-04-11T03:18:23.601Z,11.15
2023-04-11T03:20:51.965Z,12.48
2023-04-11T03:23:22.008Z,11.32
2023-04-11T03:25:49.175Z,12.32
2023-04-11T03:28:17.028Z,11.93
2023-04-11T03:30:44.143Z,15.43
2023-04-11T03:33:10.836Z,12.27
2023-04-11T03:35:37.697Z,12.50
2023-04-11T03:38:04.426Z,11.98
2023-04-11T03:40:31.108Z,12.75
2023-04-11T03:42:58.071Z,12.32
2023-04-11T03:45:24.814Z,12.02
2023-04-11T03:47:51.765Z,11.45
2023-04-11T03:50:19.062Z,11.48
2023-04-11T03:52:45.855Z,11.20
2023-04-11T03:55:12.666Z,11.70
2023-04-11T03:57:39.352Z,13.27
2023-04-11T04:00:06.635Z,12.10
2023-04-11T04:02:33.736Z,14.68
2023-04-11T04:05:00.660Z,11.40
2023-04-11T04:07:28.113Z,12.60
2023-04-11T04:09:54.842Z,12.52
2023-04-11T04:12:21.957Z,12.88
2023-04-11T04:14:48.992Z,13.18
2023-04-11T04:17:16.136Z,12.52
2023-04-11T04:19:44.553Z,13.38
2023-04-11T04:22:12.711Z,12.48
2023-04-11T04:24:41.084Z,14.57
2023-04-11T04:27:15.047Z,12.52
2023-04-11T04:29:43.011Z,12.70
2023-04-11T04:32:10.289Z,13.10
2023-04-11T04:34:43.093Z,13.65
2023-04-11T04:37:11.391Z,14.40
2023-04-11T04:39:38.143Z,15.30
2023-04-11T04:42:06.335Z,17.17
2023-04-11T04:44:34.399Z,14.95
2023-04-11T04:47:01.109Z,15.43
2023-04-11T04:49:27.852Z,13.80
2023-04-11T04:51:54.545Z,16.67
2023-04-11T04:54:21.215Z,21.10
2023-04-11T04:56:48.012Z,18.08
2023-04-11T04:59:14.703Z,16.90
2023-04-11T05:01:41.670Z,16.77
2023-04-11T05:04:08.512Z,16.75
2023-04-11T05:06:35.477Z,17.60
2023-04-11T05:09:02.432Z,16.48
2023-04-11T05:11:29.151Z,21.08
2023-04-11T05:13:56.085Z,19.75
2023-04-11T05:16:23.008Z,19.83
2023-04-11T05:18:49.798Z,22.50
2023-04-11T05:21:16.810Z,20.27
2023-04-11T05:23:44.114Z,19.40
2023-04-11T05:26:12.289Z,15.82
2023-04-11T05:28:39.107Z,19.23
2023-04-11T05:31:07.466Z,22.33
2023-04-11T05:33:35.912Z,16.55
2023-04-11T05:36:03.192Z,19.30
2023-04-11T05:38:31.110Z,21.30
2023-04-11T05:40:57.804Z,30.40
2023-04-11T05:43:25.757Z,21.83
2023-04-11T05:45:52.519Z,18.63
2023-04-11T05:48:19.283Z,19.88
2023-04-11T05:50:46.373Z,21.20
2023-04-11T05:53:13.183Z,23.65
2023-04-11T05:55:39.949Z,16.75
2023-04-11T05:58:06.712Z,17.17
2023-04-11T06:00:33.430Z,23.23
2023-04-11T06:03:01.153Z,19.38
2023-04-11T06:05:28.026Z,20.50
2023-04-11T06:07:57.219Z,21.13
2023-04-11T06:10:24.007Z,20.10
2023-04-11T06:12:51.088Z,20.10
2023-04-11T06:15:17.890Z,19.45
2023-04-11T06:17:44.651Z,19.90
2023-04-11T06:20:12.907Z,20.40
2023-04-11T06:22:40.939Z,19.98
2023-04-11T06:25:10.219Z,23.58
2023-04-11T06:27:38.111Z,20.67
2023-04-11T06:30:05.775Z,17.73
2023-04-11T06:32:33.642Z,21.55
2023-04-11T06:35:00.392Z,19.25
2023-04-11T06:37:27.135Z,20.17
2023-04-11T06:39:55.182Z,17.90
2023-04-11T06:42:21.939Z,18.30
2023-04-11T06:44:51.192Z,22.80
2023-04-11T06:47:18.091Z,20.52
2023-04-11T06:49:48.382Z,22.13
2023-04-11T06:52:17.439Z,22.33
2023-04-11T06:54:47.485Z,19.98
2023-04-11T06:57:14.294Z,19.92
2023-04-11T06:59:42.386Z,18.92
2023-04-11T07:02:11.637Z,20.15
2023-04-11T07:04:38.706Z,19.77
2023-04-11T07:07:05.594Z,19.83
2023-04-11T07:09:32.490Z,20.27
2023-04-11T07:11:59.668Z,18.27
2023-04-11T07:14:26.382Z,17.08
2023-04-11T07:16:53.063Z,22.73
2023-04-11T07:19:19.845Z,19.27
2023-04-11T07:21:46.848Z,18.92
2023-04-11T07:24:13.599Z,20.98
2023-04-11T07:26:41.433Z,21.23
2023-04-11T07:29:10.987Z,21.50
2023-04-11T07:31:40.414Z,20.48
2023-04-11T07:34:07.367Z,19.65
2023-04-11T07:36:34.013Z,18.95
2023-04-11T07:39:00.733Z,20.92
2023-04-11T07:41:27.424Z,21.35
2023-04-11T07:43:54.323Z,17.40
2023-04-11T07:46:21.468Z,19.00
2023-04-11T07:48:48.137Z,19.25
2023-04-11T07:51:14.854Z,24.45
2023-04-11T07:53:42.810Z,18.35
2023-04-11T07:56:10.193Z,17.85
2023-04-11T07:58:38.407Z,19.55
2023-04-11T08:01:06.528Z,18.35
2023-04-11T08:03:34.879Z,19.45
2023-04-11T08:06:01.767Z,19.95
2023-04-11T08:08:29.491Z,17.15
2023-04-11T08:10:56.156Z,17.50
2023-04-11T08:13:24.363Z,20.17
2023-04-11T08:15:52.082Z,18.05
2023-04-11T08:18:19.097Z,21.67
2023-04-11T08:20:45.860Z,19.45
2023-04-11T08:23:12.524Z,18.92
2023-04-11T08:25:40.323Z,22.90
2023-04-11T08:28:07.030Z,27.02
2023-04-11T08:30:35.431Z,27.55
2023-04-11T08:33:02.200Z,37.75
2023-04-11T08:35:29.165Z,24.77
2023-04-11T08:37:55.855Z,17.10
2023-04-11T08:40:23.218Z,13.90
2023-04-11T08:42:51.364Z,10.43
2023-04-11T08:45:18.032Z,14.60
2023-04-11T08:47:45.561Z,11.98
2023-04-11T08:50:12.796Z,14.20
2023-04-11T08:52:44.654Z,10.85
2023-04-11T08:55:13.465Z,12.32
2023-04-11T08:57:40.148Z,12.15
2023-04-11T09:00:07.937Z,13.25
2023-04-11T09:02:49.639Z,9.27
2023-04-11T09:05:31.775Z,10.05
2023-04-11T09:08:00.333Z,10.43
2023-04-11T09:10:27.220Z,12.75
2023-04-11T09:12:57.545Z,11.43
2023-04-11T09:15:26.678Z,11.82
2023-04-11T09:17:55.043Z,12.75
2023-04-11T09:20:24.741Z,9.52
2023-04-11T09:22:52.693Z,12.75
2023-04-11T09:25:20.814Z,6.68
2023-04-11T09:27:48.633Z,11.93
2023-04-11T09:30:23.332Z,11.88
2023-04-11T09:32:51.603Z,16.10
2023-04-11T09:35:21.027Z,11.48
2023-04-11T09:37:50.437Z,10.48
2023-04-11T09:40:19.196Z,11.77
2023-04-11T09:42:47.088Z,13.95
2023-04-11T09:45:21.594Z,13.63
2023-04-11T09:47:51.854Z,10.75
2023-04-11T09:50:19.233Z,18.10
2023-04-11T09:52:47.242Z,12.35
2023-04-11T09:55:19.714Z,11.50
2023-04-11T09:57:51.529Z,14.30
2023-04-11T10:00:23.269Z,11.50
2023-04-11T10:02:52.020Z,12.57
2023-04-11T10:05:22.822Z,11.63
2023-04-11T10:08:01.244Z,11.85
2023-04-11T10:10:28.354Z,18.42
2023-04-11T10:12:55.062Z,10.13
2023-04-11T10:15:21.860Z,12.52
2023-04-11T10:18:11.466Z,10.35
2023-04-11T10:20:47.474Z,18.17
2023-04-11T10:23:15.159Z,10.15
2023-04-11T10:25:59.808Z,10.80
2023-04-11T10:28:32.972Z,11.40
2023-04-11T10:31:10.273Z,9.95
2023-04-11T10:33:37.473Z,12.20
2023-04-11T10:36:19.609Z,6.35
2023-04-11T10:38:50.995Z,8.43
2023-04-11T10:41:28.725Z,11.13
2023-04-11T10:44:30.152Z,8.20
2023-04-11T10:46:57.177Z,7.55
2023-04-11T10:49:40.350Z,8.00
2023-04-11T10:52:23.588Z,8.20
2023-04-11T10:54:54.329Z,9.88
2023-04-11T10:57:21.883Z,7.38
2023-04-11T10:59:51.566Z,7.10
2023-04-11T11:02:18.833Z,8.63
2023-04-11T11:04:47.140Z,8.52
2023-04-11T11:07:15.085Z,8.23
2023-04-11T11:09:47.327Z,8.35
2023-04-11T11:12:15.600Z,7.95
2023-04-11T11:14:44.679Z,8.02
2023-04-11T11:17:12.809Z,9.18
2023-04-11T11:19:47.250Z,9.05
2023-04-11T11:22:21.508Z,7.43
2023-04-11T11:24:48.274Z,8.27
2023-04-11T11:27:23.168Z,7.28
2023-04-11T11:29:51.121Z,5.63
2023-04-11T11:32:25.901Z,4.45
2023-04-11T11:34:53.866Z,6.85
2023-04-11T11:37:20.626Z,6.07
2023-04-11T11:39:48.800Z,6.45
2023-04-11T11:42:15.820Z,6.15
2023-04-11T11:44:42.598Z,5.55
2023-04-11T11:47:10.765Z,6.07
2023-04-11T11:49:48.529Z,6.30
2023-04-11T11:52:36.213Z,4.25
2023-04-11T11:55:28.448Z,5.25
2023-04-11T11:57:59.971Z,6.10
2023-04-11T12:00:29.479Z,6.07
2023-04-11T12:02:57.924Z,4.60
2023-04-11T12:05:25.492Z,4.50
2023-04-11T12:07:56.398Z,5.57
2023-04-11T12:10:23.326Z,6.32
2023-04-11T12:12:53.505Z,3.88
2023-04-11T12:15:37.165Z,5.05
2023-04-11T12:18:05.881Z,4.95
2023-04-11T12:20:32.782Z,3.97
2023-04-11T12:22:59.629Z,6.78
2023-04-11T12:25:28.510Z,5.50
2023-04-11T12:27:56.456Z,6.47
2023-04-11T12:30:23.268Z,4.88
2023-04-11T12:32:51.664Z,4.28
2023-04-11T12:35:18.714Z,5.53
2023-04-11T12:37:46.559Z,5.18
2023-04-11T12:40:15.424Z,7.75
2023-04-11T12:42:56.706Z,2.90
2023-04-11T12:45:26.942Z,3.20
2023-04-11T12:47:54.607Z,7.95
2023-04-11T12:50:24.926Z,6.13
2023-04-11T12:52:52.555Z,7.60
2023-04-11T12:55:19.561Z,8.27
2023-04-11T12:57:46.367Z,4.78
2023-04-11T13:00:13.842Z,7.15
2023-04-11T13:02:44.443Z,7.30
2023-04-11T13:05:13.018Z,7.32
2023-04-11T13:07:39.750Z,11.20
2023-04-11T13:10:10.314Z,8.43
2023-04-11T13:12:37.350Z,7.85
2023-04-11T13:15:04.388Z,5.78
2023-04-11T13:17:31.259Z,8.13
2023-04-11T13:19:58.144Z,7.47
2023-04-11T13:22:24.987Z,7.10
2023-04-11T13:24:51.722Z,4.95
2023-04-11T13:27:18.466Z,10.65
2023-04-11T13:29:45.269Z,6.60
2023-04-11T13:32:11.950Z,6.10
2023-04-11T13:34:38.597Z,4.75
2023-04-11T13:37:06.769Z,4.82
2023-04-11T13:39:33.492Z,4.47
2023-04-11T13:42:01.703Z,4.40
2023-04-11T13:44:28.477Z,3.42
2023-04-11T13:46:56.612Z,3.42
2023-04-11T13:49:23.352Z,2.42
2023-04-11T13:51:51.338Z,3.45
2023-04-11T13:54:20.188Z,4.22
2023-04-11T13:56:48.917Z,3.05
2023-04-11T13:59:15.578Z,3.53
2023-04-11T14:01:46.432Z,3.13
2023-04-11T14:04:17.779Z,4.13
2023-04-11T14:06:45.980Z,5.95
2023-04-11T14:09:13.717Z,3.00
2023-04-11T14:11:41.535Z,4.28
2023-04-11T14:14:08.275Z,4.43
2023-04-11T14:16:35.043Z,4.97
2023-04-11T14:19:01.726Z,4.38
2023-04-11T14:21:28.776Z,1.98
2023-04-11T14:23:55.938Z,3.35
2023-04-11T14:26:22.965Z,4.00
2023-04-11T14:28:49.786Z,7.28
2023-04-11T14:31:16.640Z,4.47
2023-04-11T14:33:43.423Z,4.28
2023-04-11T14:36:10.264Z,3.25
2023-04-11T14:38:37.948Z,3.65
2023-04-11T14:41:06.027Z,3.97
2023-04-11T14:43:32.880Z,4.70
2023-04-11T14:45:59.715Z,5.55
2023-04-11T14:48:26.896Z,5.63
2023-04-11T14:50:53.779Z,5.07
2023-04-11T14:53:21.634Z,4.85
2023-04-11T14:55:48.313Z,5.40
2023-04-11T14:58:15.479Z,5.20
2023-04-11T15:00:42.189Z,4.57
2023-04-11T15:03:09.413Z,6.03
2023-04-11T15:05:38.955Z,4.53
2023-04-11T15:08:05.677Z,5.10
2023-04-11T15:10:32.424Z,5.90
2023-04-11T15:12:59.126Z,3.78
2023-04-11T15:15:25.841Z,4.68
2023-04-11T15:18:19.818Z,4.10
2023-04-11T15:20:46.914Z,3.63
2023-04-11T15:23:14.992Z,4.03
2023-04-11T15:25:43.061Z,8.63
2023-04-11T15:28:10.880Z,4.85
2023-04-11T15:30:51.179Z,5.47
2023-04-11T15:33:20.471Z,9.32
2023-04-11T15:35:47.980Z,6.18
2023-04-11T15:38:16.289Z,6.80
2023-04-11T15:40:43.295Z,6.28
2023-04-11T15:43:10.966Z,5.68
2023-04-11T15:45:38.890Z,5.82
2023-04-11T15:48:06.259Z,5.53
2023-04-11T15:50:33.001Z,5.05
2023-04-11T15:52:59.796Z,5.57
2023-04-11T15:55:26.592Z,6.38
2023-04-11T15:57:53.346Z,4.95
2023-04-11T16:00:20.773Z,3.70
2023-04-11T16:02:48.150Z,3.15
2023-04-11T16:05:15.487Z,4.70
2023-04-11T16:07:43.524Z,3.67
2023-04-11T16:10:10.458Z,5.13
2023-04-11T16:12:37.479Z,2.75
2023-04-11T16:15:05.577Z,3.47
2023-04-11T16:17:34.138Z,5.57
2023-04-11T16:20:02.004Z,4.28
2023-04-11T16:22:28.715Z,5.57
2023-04-11T16:24:55.384Z,6.43
2023-04-11T16:27:22.135Z,5.78
2023-04-11T16:29:48.910Z,4.28
2023-04-11T16:32:15.601Z,5.57
2023-04-11T16:34:42.305Z,5.57
2023-04-11T16:37:10.329Z,2.92
2023-04-11T16:39:36.986Z,6.22
2023-04-11T16:42:07.623Z,4.78
2023-04-11T16:44:38.729Z,8.35
2023-04-11T16:47:07.942Z,4.82
2023-04-11T16:49:36.225Z,4.65
2023-04-11T16:52:04.374Z,4.10
2023-04-11T16:54:34.324Z,5.32
2023-04-11T16:57:03.574Z,4.45
2023-04-11T16:59:32.472Z,5.78
2023-04-11T17:02:02.933Z,4.93
2023-04-11T17:04:31.216Z,5.75
2023-04-11T17:06:59.099Z,6.93
2023-04-11T17:09:26.869Z,3.83
2023-04-11T17:11:53.734Z,3.60
2023-04-11T17:14:24.302Z,7.03
2023-04-11T17:16:52.506Z,7.32
2023-04-11T17:19:24.569Z,5.85
2023-04-11T17:21:53.857Z,5.93
2023-04-11T17:24:23.229Z,4.38
2023-04-11T17:26:53.657Z,3.58
2023-04-11T17:29:23.848Z,5.20
2023-04-11T17:31:53.279Z,4.72
2023-04-11T17:34:20.039Z,4.68
2023-04-11T17:36:48.826Z,3.50
2023-04-11T17:39:18.633Z,6.97
2023-04-11T17:41:47.186Z,4.22
2023-04-11T17:44:14.178Z,5.13
2023-04-11T17:46:41.239Z,3.78
2023-04-11T17:49:08.128Z,5.00
2023-04-11T17:51:35.284Z,4.18
2023-04-11T17:54:03.024Z,3.45
2023-04-11T17:56:29.692Z,5.30
2023-04-11T17:58:56.391Z,6.60
2023-04-11T18:01:23.426Z,5.22
2023-04-11T18:03:50.216Z,6.35
2023-04-11T18:06:16.942Z,3.20
2023-04-11T18:08:51.006Z,5.13
2023-04-11T18:11:18.658Z,6.83
2023-04-11T18:13:47.634Z,5.68
2023-04-11T18:16:16.226Z,6.60
2023-04-11T18:18:42.987Z,6.25
2023-04-11T18:21:11.151Z,6.35
2023-04-11T18:23:38.793Z,7.35
2023-04-11T18:26:06.900Z,8.80
2023-04-11T18:28:33.698Z,7.75
2023-04-11T18:31:01.593Z,6.90
2023-04-11T18:33:28.974Z,8.00
2023-04-11T18:35:56.902Z,8.90
2023-04-11T18:38:23.884Z,6.82
2023-04-11T18:40:55.317Z,9.52
2023-04-11T18:43:24.502Z,6.05
2023-04-11T18:45:53.372Z,8.40
2023-04-11T18:48:25.454Z,6.28
2023-04-11T18:51:11.341Z,6.45
2023-04-11T18:53:39.607Z,3.58
2023-04-11T18:56:07.256Z,8.80
2023-04-11T18:58:38.985Z,6.95
2023-04-11T19:03:47.138Z,6.20
2023-04-11T19:06:14.546Z,7.72
2023-04-11T19:08:41.340Z,8.02
2023-04-11T19:11:12.143Z,9.07
2023-04-11T19:13:40.217Z,7.88
2023-04-11T19:16:07.363Z,7.35
2023-04-11T19:18:35.559Z,8.13
2023-04-11T19:21:03.629Z,7.10
2023-04-11T19:23:31.978Z,7.30
2023-04-11T19:25:59.137Z,5.68
2023-04-11T19:28:30.949Z,10.57
2023-04-11T19:30:59.022Z,8.90
2023-04-11T19:33:26.053Z,9.50
2023-04-11T19:35:55.420Z,10.02
2023-04-11T19:38:22.176Z,7.32
2023-04-11T19:40:49.462Z,9.27
2023-04-11T19:43:16.488Z,7.85
2023-04-11T19:45:43.580Z,10.40
2023-04-11T19:48:10.376Z,11.05
2023-04-11T19:50:37.167Z,9.02
2023-04-11T19:53:03.973Z,10.23
2023-04-11T19:55:30.741Z,10.85
2023-04-11T19:57:57.390Z,8.20
2023-04-11T20:00:25.980Z,10.95
2023-04-11T20:02:54.522Z,9.93
2023-04-11T20:05:21.367Z,12.95
2023-04-11T20:07:48.395Z,10.80
2023-04-11T20:10:16.174Z,6.97
2023-04-11T20:12:44.344Z,9.15
2023-04-11T20:15:11.356Z,7.70
2023-04-11T20:17:38.580Z,5.75
2023-04-11T20:20:05.751Z,10.73
2023-04-11T20:22:34.345Z,8.07
2023-04-11T20:25:01.117Z,6.65
2023-04-11T20:27:27.799Z,9.68
2023-04-11T20:29:54.526Z,7.57
2023-04-11T20:32:21.401Z,5.28
2023-04-11T20:34:48.226Z,6.82
2023-04-11T20:37:16.969Z,6.30
2023-04-11T20:39:48.750Z,7.88
2023-04-11T20:42:15.939Z,6.80
2023-04-11T20:44:42.772Z,4.32
2023-04-11T20:47:09.506Z,5.00
2023-04-11T20:49:36.656Z,4.80
2023-04-11T20:52:03.371Z,7.05
2023-04-11T20:54:30.176Z,7.32
2023-04-11T20:56:56.883Z,6.07
2023-04-11T20:59:23.697Z,6.00
2023-04-11T21:01:50.456Z,6.47
2023-04-11T21:04:17.278Z,6.38
2023-04-11T21:06:44.034Z,7.47
2023-04-11T21:09:10.728Z,4.85
2023-04-11T21:11:37.419Z,6.43
2023-04-11T21:14:04.875Z,9.85
2023-04-11T21:16:31.559Z,10.77
2023-04-11T21:18:58.226Z,7.70
2023-04-11T21:21:25.025Z,5.75
2023-04-11T21:23:51.709Z,24.42
2023-04-11T21:26:18.653Z,7.53
2023-04-11T21:28:45.326Z,6.38
2023-04-11T21:31:12.062Z,5.88
2023-04-11T21:33:38.737Z,7.78
2023-04-11T21:36:05.858Z,7.82
2023-04-11T21:38:32.587Z,7.15
2023-04-11T21:40:59.278Z,7.57
2023-04-11T21:43:25.984Z,6.97
2023-04-11T21:45:52.747Z,9.00
2023-04-11T21:48:19.509Z,10.77
2023-04-11T21:50:46.275Z,6.18
2023-04-11T21:53:13.081Z,7.07
2023-04-11T21:55:44.867Z,6.72
2023-04-11T21:58:21.923Z,7.85
2023-04-11T22:00:55.103Z,8.35
2023-04-11T22:03:22.048Z,7.82
2023-04-11T22:05:48.848Z,6.90
2023-04-11T22:08:15.910Z,7.65
2023-04-11T22:10:47.643Z,6.22
2023-04-11T22:13:16.391Z,7.95
2023-04-11T22:15:43.645Z,7.18
2023-04-11T22:18:11.313Z,5.35
2023-04-11T22:20:42.563Z,6.70
2023-04-11T22:23:10.530Z,5.63
2023-04-11T22:25:37.411Z,7.07
2023-04-11T22:28:04.465Z,5.35
2023-04-11T22:30:31.176Z,6.22
2023-04-11T22:32:57.870Z,7.72
2023-04-11T22:35:24.500Z,5.85
2023-04-11T22:37:51.279Z,5.10
2023-04-11T22:40:18.022Z,4.82
2023-04-11T22:42:44.633Z,6.85
2023-04-11T22:45:11.439Z,7.18
2023-04-11T22:47:38.257Z,5.88
2023-04-11T22:50:05.291Z,5.95
2023-04-11T22:52:31.989Z,8.57
2023-04-11T22:54:58.651Z,8.73
2023-04-11T22:57:25.301Z,6.85
2023-04-11T22:59:51.992Z,4.22
2023-04-11T23:02:18.721Z,6.97
2023-04-11T23:04:45.595Z,9.88
2023-04-11T23:07:12.436Z,7.93
2023-04-11T23:09:39.086Z,7.85
2023-04-11T23:12:05.849Z,7.03
2023-04-11T23:14:32.509Z,7.45
2023-04-11T23:16:59.165Z,9.18
2023-04-11T23:19:25.871Z,6.38
2023-04-11T23:21:52.579Z,8.77
2023-04-11T23:24:19.339Z,10.13
2023-04-11T23:26:46.011Z,8.30
2023-04-11T23:29:12.810Z,6.78
2023-04-11T23:31:39.542Z,10.85
2023-04-11T23:34:06.220Z,7.68
2023-04-11T23:36:32.903Z,9.80
2023-04-11T23:38:59.608Z,7.20
2023-04-11T23:41:26.308Z,10.45
2023-04-11T23:43:53.063Z,12.80
2023-04-11T23:46:19.900Z,9.60
2023-04-11T23:48:46.623Z,13.00
2023-04-11T23:51:13.931Z,9.63
2023-04-11T23:53:40.777Z,9.52
2023-04-11T23:56:08.230Z,10.68
2023-04-11T23:58:35.184Z,11.60
